sensor_id;sensor_type;location;lat;lon;timestamp;temperature;humidity
68924;DHT22;55961;52.156;20.942;2023-01-24T00:00:42;2.00;88.60
68924;DHT22;55961;52.156;20.942;2023-01-24T00:03:18;2.10;88.70
68924;DHT22;55961;52.156;20.942;2023-01-24T00:05:47;2.10;88.80
68924;DHT22;55961;52.156;20.942;2023-01-24T00:08:14;2.10;88.80
68924;DHT22;55961;52.156;20.942;2023-01-24T00:10:41;2.10;88.70
68924;DHT22;55961;52.156;20.942;2023-01-24T00:13:10;2.10;88.70
68924;DHT22;55961;52.156;20.942;2023-01-24T00:15:37;2.10;88.70
68924;DHT22;55961;52.156;20.942;2023-01-24T00:18:03;2.10;88.70
68924;DHT22;55961;52.156;20.942;2023-01-24T00:20:29;2.10;88.70
68924;DHT22;55961;52.156;20.942;2023-01-24T00:22:55;2.10;88.60
68924;DHT22;55961;52.156;20.942;2023-01-24T00:25:21;2.10;88.60
68924;DHT22;55961;52.156;20.942;2023-01-24T00:27:47;2.10;88.70
68924;DHT22;55961;52.156;20.942;2023-01-24T00:30:13;2.10;88.70
68924;DHT22;55961;52.156;20.942;2023-01-24T00:32:39;2.10;88.70
68924;DHT22;55961;52.156;20.942;2023-01-24T00:35:05;2.10;88.80
68924;DHT22;55961;52.156;20.942;2023-01-24T00:37:31;2.10;88.80
68924;DHT22;55961;52.156;20.942;2023-01-24T00:39:57;2.20;88.70
68924;DHT22;55961;52.156;20.942;2023-01-24T00:42:23;2.20;88.80
68924;DHT22;55961;52.156;20.942;2023-01-24T00:44:49;2.20;88.80
68924;DHT22;55961;52.156;20.942;2023-01-24T00:47:15;2.10;88.70
68924;DHT22;55961;52.156;20.942;2023-01-24T00:49:41;2.10;88.70
68924;DHT22;55961;52.156;20.942;2023-01-24T00:52:07;2.20;88.60
68924;DHT22;55961;52.156;20.942;2023-01-24T00:54:33;2.20;88.70
68924;DHT22;55961;52.156;20.942;2023-01-24T00:56:59;2.20;88.80
68924;DHT22;55961;52.156;20.942;2023-01-24T00:59:25;2.20;88.60
68924;DHT22;55961;52.156;20.942;2023-01-24T01:01:51;2.20;88.70
68924;DHT22;55961;52.156;20.942;2023-01-24T01:04:17;2.10;88.70
68924;DHT22;55961;52.156;20.942;2023-01-24T01:06:44;2.20;88.70
68924;DHT22;55961;52.156;20.942;2023-01-24T01:09:10;2.20;88.80
68924;DHT22;55961;52.156;20.942;2023-01-24T01:11:37;2.20;88.80
68924;DHT22;55961;52.156;20.942;2023-01-24T01:14:08;2.20;88.80
68924;DHT22;55961;52.156;20.942;2023-01-24T01:16:34;2.20;88.80
68924;DHT22;55961;52.156;20.942;2023-01-24T01:19:04;2.20;88.80
68924;DHT22;55961;52.156;20.942;2023-01-24T01:21:31;2.20;88.80
68924;DHT22;55961;52.156;20.942;2023-01-24T01:23:57;2.20;88.80
68924;DHT22;55961;52.156;20.942;2023-01-24T01:26:23;2.20;88.70
68924;DHT22;55961;52.156;20.942;2023-01-24T01:28:49;2.20;88.70
68924;DHT22;55961;52.156;20.942;2023-01-24T01:31:15;2.20;88.60
68924;DHT22;55961;52.156;20.942;2023-01-24T01:33:43;2.20;88.70
68924;DHT22;55961;52.156;20.942;2023-01-24T01:36:10;2.20;88.70
68924;DHT22;55961;52.156;20.942;2023-01-24T01:38:35;2.20;88.60
68924;DHT22;55961;52.156;20.942;2023-01-24T01:41:01;2.20;88.60
68924;DHT22;55961;52.156;20.942;2023-01-24T01:43:29;2.20;88.60
68924;DHT22;55961;52.156;20.942;2023-01-24T01:46:18;2.20;88.70
68924;DHT22;55961;52.156;20.942;2023-01-24T01:48:50;2.20;88.70
68924;DHT22;55961;52.156;20.942;2023-01-24T01:51:26;2.20;88.70
68924;DHT22;55961;52.156;20.942;2023-01-24T01:56:29;2.20;88.90
68924;DHT22;55961;52.156;20.942;2023-01-24T01:59:01;2.20;88.80
68924;DHT22;55961;52.156;20.942;2023-01-24T02:01:28;2.20;88.80
68924;DHT22;55961;52.156;20.942;2023-01-24T02:04:04;2.20;88.80
68924;DHT22;55961;52.156;20.942;2023-01-24T02:06:54;2.20;88.90
68924;DHT22;55961;52.156;20.942;2023-01-24T02:09:23;2.20;89.00
68924;DHT22;55961;52.156;20.942;2023-01-24T02:11:52;2.10;89.10
68924;DHT22;55961;52.156;20.942;2023-01-24T02:14:21;2.20;89.20
68924;DHT22;55961;52.156;20.942;2023-01-24T02:17:08;2.10;89.10
68924;DHT22;55961;52.156;20.942;2023-01-24T02:20:00;2.10;89.20
68924;DHT22;55961;52.156;20.942;2023-01-24T02:25:16;2.10;89.30
68924;DHT22;55961;52.156;20.942;2023-01-24T02:27:44;2.10;89.30
68924;DHT22;55961;52.156;20.942;2023-01-24T02:30:10;2.10;89.30
68924;DHT22;55961;52.156;20.942;2023-01-24T02:32:36;2.10;89.40
68924;DHT22;55961;52.156;20.942;2023-01-24T02:35:03;2.10;89.40
68924;DHT22;55961;52.156;20.942;2023-01-24T02:37:29;2.10;89.60
68924;DHT22;55961;52.156;20.942;2023-01-24T02:42:28;2.10;89.70
68924;DHT22;55961;52.156;20.942;2023-01-24T02:45:05;2.10;89.80
68924;DHT22;55961;52.156;20.942;2023-01-24T02:47:38;2.10;89.80
68924;DHT22;55961;52.156;20.942;2023-01-24T02:50:06;2.10;89.80
68924;DHT22;55961;52.156;20.942;2023-01-24T02:52:34;2.20;89.80
68924;DHT22;55961;52.156;20.942;2023-01-24T02:55:18;2.10;89.80
68924;DHT22;55961;52.156;20.942;2023-01-24T02:57:44;2.20;89.80
68924;DHT22;55961;52.156;20.942;2023-01-24T03:00:29;2.20;89.90
68924;DHT22;55961;52.156;20.942;2023-01-24T03:02:55;2.20;89.80
68924;DHT22;55961;52.156;20.942;2023-01-24T03:05:21;2.20;89.90
68924;DHT22;55961;52.156;20.942;2023-01-24T03:07:47;2.20;89.80
68924;DHT22;55961;52.156;20.942;2023-01-24T03:10:17;2.20;89.70
68924;DHT22;55961;52.156;20.942;2023-01-24T03:12:44;2.20;89.70
68924;DHT22;55961;52.156;20.942;2023-01-24T03:15:28;2.20;89.50
68924;DHT22;55961;52.156;20.942;2023-01-24T03:18:14;2.20;89.50
68924;DHT22;55961;52.156;20.942;2023-01-24T03:20:58;2.20;89.50
68924;DHT22;55961;52.156;20.942;2023-01-24T03:23:43;2.20;89.60
68924;DHT22;55961;52.156;20.942;2023-01-24T03:26:27;2.20;89.60
68924;DHT22;55961;52.156;20.942;2023-01-24T03:29:12;2.30;89.50
68924;DHT22;55961;52.156;20.942;2023-01-24T03:31:56;2.20;89.50
68924;DHT22;55961;52.156;20.942;2023-01-24T03:34:41;2.20;89.40
68924;DHT22;55961;52.156;20.942;2023-01-24T03:37:21;2.20;89.50
68924;DHT22;55961;52.156;20.942;2023-01-24T03:40:14;2.20;89.50
68924;DHT22;55961;52.156;20.942;2023-01-24T03:42:40;2.20;89.50
68924;DHT22;55961;52.156;20.942;2023-01-24T03:47:49;2.20;89.50
68924;DHT22;55961;52.156;20.942;2023-01-24T03:50:35;2.30;89.50
68924;DHT22;55961;52.156;20.942;2023-01-24T03:53:22;2.30;89.40
68924;DHT22;55961;52.156;20.942;2023-01-24T03:55:56;2.30;89.50
68924;DHT22;55961;52.156;20.942;2023-01-24T03:58:23;2.20;89.50
68924;DHT22;55961;52.156;20.942;2023-01-24T04:00:51;2.30;89.40
68924;DHT22;55961;52.156;20.942;2023-01-24T04:03:17;2.20;89.30
68924;DHT22;55961;52.156;20.942;2023-01-24T04:05:46;2.20;89.30
68924;DHT22;55961;52.156;20.942;2023-01-24T04:08:12;2.20;89.40
68924;DHT22;55961;52.156;20.942;2023-01-24T04:10:38;2.20;89.30
68924;DHT22;55961;52.156;20.942;2023-01-24T04:13:04;2.20;89.30
68924;DHT22;55961;52.156;20.942;2023-01-24T04:15:32;2.20;89.40
68924;DHT22;55961;52.156;20.942;2023-01-24T04:18:00;2.20;89.30
68924;DHT22;55961;52.156;20.942;2023-01-24T04:20:28;2.20;89.40
68924;DHT22;55961;52.156;20.942;2023-01-24T04:22:54;2.20;89.30
68924;DHT22;55961;52.156;20.942;2023-01-24T04:25:21;2.20;89.30
68924;DHT22;55961;52.156;20.942;2023-01-24T04:27:47;2.20;89.30
68924;DHT22;55961;52.156;20.942;2023-01-24T04:30:15;2.20;89.30
68924;DHT22;55961;52.156;20.942;2023-01-24T04:32:41;2.20;89.30
68924;DHT22;55961;52.156;20.942;2023-01-24T04:35:09;2.20;89.30
68924;DHT22;55961;52.156;20.942;2023-01-24T04:37:35;2.20;89.30
68924;DHT22;55961;52.156;20.942;2023-01-24T04:40:01;2.20;89.40
68924;DHT22;55961;52.156;20.942;2023-01-24T04:42:27;2.20;89.40
68924;DHT22;55961;52.156;20.942;2023-01-24T04:44:53;2.20;89.40
68924;DHT22;55961;52.156;20.942;2023-01-24T04:47:19;2.20;89.40
68924;DHT22;55961;52.156;20.942;2023-01-24T04:49:45;2.20;89.40
68924;DHT22;55961;52.156;20.942;2023-01-24T04:52:12;2.20;89.40
68924;DHT22;55961;52.156;20.942;2023-01-24T04:54:39;2.20;89.40
68924;DHT22;55961;52.156;20.942;2023-01-24T04:57:06;2.20;89.40
68924;DHT22;55961;52.156;20.942;2023-01-24T04:59:32;2.20;89.40
68924;DHT22;55961;52.156;20.942;2023-01-24T05:01:58;2.20;89.50
68924;DHT22;55961;52.156;20.942;2023-01-24T05:04:24;2.20;89.50
68924;DHT22;55961;52.156;20.942;2023-01-24T05:06:50;2.30;89.50
68924;DHT22;55961;52.156;20.942;2023-01-24T05:09:16;2.30;89.60
68924;DHT22;55961;52.156;20.942;2023-01-24T05:11:42;2.30;89.60
68924;DHT22;55961;52.156;20.942;2023-01-24T05:14:09;2.30;89.60
68924;DHT22;55961;52.156;20.942;2023-01-24T05:16:37;2.30;89.60
68924;DHT22;55961;52.156;20.942;2023-01-24T05:19:04;2.30;89.60
68924;DHT22;55961;52.156;20.942;2023-01-24T05:21:30;2.30;89.50
68924;DHT22;55961;52.156;20.942;2023-01-24T05:23:56;2.30;89.40
68924;DHT22;55961;52.156;20.942;2023-01-24T05:26:25;2.30;89.40
68924;DHT22;55961;52.156;20.942;2023-01-24T05:28:52;2.30;89.40
68924;DHT22;55961;52.156;20.942;2023-01-24T05:31:19;2.30;89.50
68924;DHT22;55961;52.156;20.942;2023-01-24T05:33:46;2.40;89.40
68924;DHT22;55961;52.156;20.942;2023-01-24T05:36:19;2.40;89.40
68924;DHT22;55961;52.156;20.942;2023-01-24T05:38:46;2.40;89.30
68924;DHT22;55961;52.156;20.942;2023-01-24T05:41:14;2.40;89.40
68924;DHT22;55961;52.156;20.942;2023-01-24T05:43:44;2.40;89.30
68924;DHT22;55961;52.156;20.942;2023-01-24T05:46:21;2.40;89.30
68924;DHT22;55961;52.156;20.942;2023-01-24T05:48:48;2.40;89.30
68924;DHT22;55961;52.156;20.942;2023-01-24T05:51:16;2.40;89.20
68924;DHT22;55961;52.156;20.942;2023-01-24T05:53:43;2.40;89.10
68924;DHT22;55961;52.156;20.942;2023-01-24T05:56:12;2.40;89.10
68924;DHT22;55961;52.156;20.942;2023-01-24T05:58:39;2.40;89.00
68924;DHT22;55961;52.156;20.942;2023-01-24T06:01:18;2.40;89.00
68924;DHT22;55961;52.156;20.942;2023-01-24T06:03:47;2.40;89.00
68924;DHT22;55961;52.156;20.942;2023-01-24T06:06:15;2.40;88.90
68924;DHT22;55961;52.156;20.942;2023-01-24T06:08:42;2.40;89.00
68924;DHT22;55961;52.156;20.942;2023-01-24T06:13:38;2.40;89.10
68924;DHT22;55961;52.156;20.942;2023-01-24T06:16:12;2.40;89.00
68924;DHT22;55961;52.156;20.942;2023-01-24T06:18:39;2.40;89.10
68924;DHT22;55961;52.156;20.942;2023-01-24T06:21:16;2.40;89.10
68924;DHT22;55961;52.156;20.942;2023-01-24T06:23:44;2.40;89.10
68924;DHT22;55961;52.156;20.942;2023-01-24T06:26:10;2.50;89.10
68924;DHT22;55961;52.156;20.942;2023-01-24T06:28:38;2.40;89.00
68924;DHT22;55961;52.156;20.942;2023-01-24T06:33:36;2.50;88.90
68924;DHT22;55961;52.156;20.942;2023-01-24T06:36:27;2.50;89.00
68924;DHT22;55961;52.156;20.942;2023-01-24T06:38:55;2.50;88.90
68924;DHT22;55961;52.156;20.942;2023-01-24T06:41:22;2.50;88.80
68924;DHT22;55961;52.156;20.942;2023-01-24T06:43:48;2.50;88.60
68924;DHT22;55961;52.156;20.942;2023-01-24T06:46:14;2.50;88.40
68924;DHT22;55961;52.156;20.942;2023-01-24T06:48:44;2.50;88.60
68924;DHT22;55961;52.156;20.942;2023-01-24T06:51:12;2.50;88.50
68924;DHT22;55961;52.156;20.942;2023-01-24T06:53:39;2.50;88.60
68924;DHT22;55961;52.156;20.942;2023-01-24T06:56:05;2.50;88.60
68924;DHT22;55961;52.156;20.942;2023-01-24T06:58:32;2.50;88.50
68924;DHT22;55961;52.156;20.942;2023-01-24T07:00:57;2.50;88.70
68924;DHT22;55961;52.156;20.942;2023-01-24T07:03:23;2.50;88.60
68924;DHT22;55961;52.156;20.942;2023-01-24T07:05:49;2.50;88.60
68924;DHT22;55961;52.156;20.942;2023-01-24T07:08:15;2.50;88.60
68924;DHT22;55961;52.156;20.942;2023-01-24T07:10:43;2.50;88.50
68924;DHT22;55961;52.156;20.942;2023-01-24T07:13:09;2.50;88.60
68924;DHT22;55961;52.156;20.942;2023-01-24T07:15:34;2.50;88.60
68924;DHT22;55961;52.156;20.942;2023-01-24T07:18:06;2.50;88.70
68924;DHT22;55961;52.156;20.942;2023-01-24T07:20:32;2.50;88.80
68924;DHT22;55961;52.156;20.942;2023-01-24T07:22:58;2.50;88.90
68924;DHT22;55961;52.156;20.942;2023-01-24T07:25:26;2.50;89.00
68924;DHT22;55961;52.156;20.942;2023-01-24T07:27:52;2.50;89.00
68924;DHT22;55961;52.156;20.942;2023-01-24T07:30:18;2.50;89.00
68924;DHT22;55961;52.156;20.942;2023-01-24T07:32:44;2.50;88.90
68924;DHT22;55961;52.156;20.942;2023-01-24T07:35:10;2.50;88.90
68924;DHT22;55961;52.156;20.942;2023-01-24T07:37:37;2.60;89.00
68924;DHT22;55961;52.156;20.942;2023-01-24T07:40:03;2.60;89.00
68924;DHT22;55961;52.156;20.942;2023-01-24T07:42:29;2.60;88.90
68924;DHT22;55961;52.156;20.942;2023-01-24T07:44:55;2.60;88.80
68924;DHT22;55961;52.156;20.942;2023-01-24T07:47:23;2.60;88.60
68924;DHT22;55961;52.156;20.942;2023-01-24T07:49:51;2.70;88.70
68924;DHT22;55961;52.156;20.942;2023-01-24T07:52:17;2.70;88.60
68924;DHT22;55961;52.156;20.942;2023-01-24T07:54:43;2.70;88.60
68924;DHT22;55961;52.156;20.942;2023-01-24T07:57:09;2.70;88.70
68924;DHT22;55961;52.156;20.942;2023-01-24T07:59:35;2.70;88.60
68924;DHT22;55961;52.156;20.942;2023-01-24T08:02:01;2.70;88.70
68924;DHT22;55961;52.156;20.942;2023-01-24T08:04:27;2.70;88.70
68924;DHT22;55961;52.156;20.942;2023-01-24T08:06:53;2.80;88.60
68924;DHT22;55961;52.156;20.942;2023-01-24T08:09:37;2.80;88.50
68924;DHT22;55961;52.156;20.942;2023-01-24T08:12:03;2.80;88.40
68924;DHT22;55961;52.156;20.942;2023-01-24T08:14:29;2.80;88.30
68924;DHT22;55961;52.156;20.942;2023-01-24T08:16:58;2.80;88.30
68924;DHT22;55961;52.156;20.942;2023-01-24T08:19:23;2.80;87.80
68924;DHT22;55961;52.156;20.942;2023-01-24T08:21:50;2.80;87.80
68924;DHT22;55961;52.156;20.942;2023-01-24T08:24:16;2.90;87.70
68924;DHT22;55961;52.156;20.942;2023-01-24T08:26:42;2.90;87.90
68924;DHT22;55961;52.156;20.942;2023-01-24T08:29:12;2.90;87.90
68924;DHT22;55961;52.156;20.942;2023-01-24T08:31:38;2.90;87.90
68924;DHT22;55961;52.156;20.942;2023-01-24T08:34:04;2.90;88.00
68924;DHT22;55961;52.156;20.942;2023-01-24T08:36:30;3.00;87.80
68924;DHT22;55961;52.156;20.942;2023-01-24T08:38:56;3.00;87.70
68924;DHT22;55961;52.156;20.942;2023-01-24T08:41:22;3.00;87.60
68924;DHT22;55961;52.156;20.942;2023-01-24T08:43:51;3.00;87.70
68924;DHT22;55961;52.156;20.942;2023-01-24T08:46:18;3.00;87.70
68924;DHT22;55961;52.156;20.942;2023-01-24T08:48:43;3.00;87.50
68924;DHT22;55961;52.156;20.942;2023-01-24T08:51:09;3.10;87.70
68924;DHT22;55961;52.156;20.942;2023-01-24T08:53:35;3.10;87.40
68924;DHT22;55961;52.156;20.942;2023-01-24T08:56:02;3.10;87.30
68924;DHT22;55961;52.156;20.942;2023-01-24T08:58:28;3.10;87.20
68924;DHT22;55961;52.156;20.942;2023-01-24T09:00:55;3.20;89.60
68924;DHT22;55961;52.156;20.942;2023-01-24T09:03:20;3.30;92.20
68924;DHT22;55961;52.156;20.942;2023-01-24T09:05:46;3.40;94.20
68924;DHT22;55961;52.156;20.942;2023-01-24T09:08:12;3.60;95.20
68924;DHT22;55961;52.156;20.942;2023-01-24T09:10:38;3.70;94.00
68924;DHT22;55961;52.156;20.942;2023-01-24T09:13:04;3.80;92.50
68924;DHT22;55961;52.156;20.942;2023-01-24T09:15:30;3.80;90.50
68924;DHT22;55961;52.156;20.942;2023-01-24T09:18:00;3.80;89.10
68924;DHT22;55961;52.156;20.942;2023-01-24T09:20:28;3.80;88.20
68924;DHT22;55961;52.156;20.942;2023-01-24T09:22:54;3.80;87.50
68924;DHT22;55961;52.156;20.942;2023-01-24T09:25:20;3.80;86.50
68924;DHT22;55961;52.156;20.942;2023-01-24T09:27:52;3.80;86.30
68924;DHT22;55961;52.156;20.942;2023-01-24T09:30:18;3.80;86.00
68924;DHT22;55961;52.156;20.942;2023-01-24T09:32:44;3.80;85.90
68924;DHT22;55961;52.156;20.942;2023-01-24T09:35:10;3.80;85.80
68924;DHT22;55961;52.156;20.942;2023-01-24T09:37:36;3.80;85.60
68924;DHT22;55961;52.156;20.942;2023-01-24T09:40:04;3.80;85.40
68924;DHT22;55961;52.156;20.942;2023-01-24T09:42:47;3.80;85.00
68924;DHT22;55961;52.156;20.942;2023-01-24T09:45:31;3.80;84.90
68924;DHT22;55961;52.156;20.942;2023-01-24T09:48:01;3.80;84.70
68924;DHT22;55961;52.156;20.942;2023-01-24T09:50:54;3.80;84.60
68924;DHT22;55961;52.156;20.942;2023-01-24T09:53:33;3.80;84.70
68924;DHT22;55961;52.156;20.942;2023-01-24T09:56:04;3.90;84.80
68924;DHT22;55961;52.156;20.942;2023-01-24T10:01:04;3.90;85.00
68924;DHT22;55961;52.156;20.942;2023-01-24T10:03:35;3.90;85.00
68924;DHT22;55961;52.156;20.942;2023-01-24T10:06:23;3.90;84.90
68924;DHT22;55961;52.156;20.942;2023-01-24T10:24:51;4.00;84.70
68924;DHT22;55961;52.156;20.942;2023-01-24T10:27:44;4.00;84.70
68924;DHT22;55961;52.156;20.942;2023-01-24T10:30:20;4.00;84.60
68924;DHT22;55961;52.156;20.942;2023-01-24T10:32:52;4.00;84.50
68924;DHT22;55961;52.156;20.942;2023-01-24T10:35:29;4.00;84.50
68924;DHT22;55961;52.156;20.942;2023-01-24T10:37:59;4.00;84.40
68924;DHT22;55961;52.156;20.942;2023-01-24T10:40:26;4.00;84.50
68924;DHT22;55961;52.156;20.942;2023-01-24T10:42:52;4.00;84.60
68924;DHT22;55961;52.156;20.942;2023-01-24T10:48:09;4.00;84.30
68924;DHT22;55961;52.156;20.942;2023-01-24T10:50:41;4.00;84.30
68924;DHT22;55961;52.156;20.942;2023-01-24T10:53:25;4.00;84.10
68924;DHT22;55961;52.156;20.942;2023-01-24T10:56:02;4.10;84.20
68924;DHT22;55961;52.156;20.942;2023-01-24T11:01:16;4.00;84.10
68924;DHT22;55961;52.156;20.942;2023-01-24T11:03:46;4.00;84.00
68924;DHT22;55961;52.156;20.942;2023-01-24T11:06:38;4.00;84.00
68924;DHT22;55961;52.156;20.942;2023-01-24T11:09:14;4.10;84.10
68924;DHT22;55961;52.156;20.942;2023-01-24T11:11:55;4.00;83.90
68924;DHT22;55961;52.156;20.942;2023-01-24T11:14:24;4.00;83.60
68924;DHT22;55961;52.156;20.942;2023-01-24T11:16:54;4.00;83.60
68924;DHT22;55961;52.156;20.942;2023-01-24T11:19:29;4.00;83.60
68924;DHT22;55961;52.156;20.942;2023-01-24T11:21:59;4.00;83.60
68924;DHT22;55961;52.156;20.942;2023-01-24T11:24:26;4.00;83.70
68924;DHT22;55961;52.156;20.942;2023-01-24T11:27:14;4.00;83.70
68924;DHT22;55961;52.156;20.942;2023-01-24T11:29:40;4.00;83.70
68924;DHT22;55961;52.156;20.942;2023-01-24T11:35:33;4.00;83.30
68924;DHT22;55961;52.156;20.942;2023-01-24T11:41:02;4.10;83.40
68924;DHT22;55961;52.156;20.942;2023-01-24T11:54:26;4.10;83.30
68924;DHT22;55961;52.156;20.942;2023-01-24T11:57:20;4.00;83.30
68924;DHT22;55961;52.156;20.942;2023-01-24T12:05:59;4.10;83.30
68924;DHT22;55961;52.156;20.942;2023-01-24T12:14:04;4.10;83.40
68924;DHT22;55961;52.156;20.942;2023-01-24T12:21:40;4.10;82.90
68924;DHT22;55961;52.156;20.942;2023-01-24T12:24:21;4.10;82.70
68924;DHT22;55961;52.156;20.942;2023-01-24T12:26:54;4.10;82.70
68924;DHT22;55961;52.156;20.942;2023-01-24T12:29:40;4.20;82.90
68924;DHT22;55961;52.156;20.942;2023-01-24T12:32:22;4.20;82.80
68924;DHT22;55961;52.156;20.942;2023-01-24T12:34:51;4.20;82.80
68924;DHT22;55961;52.156;20.942;2023-01-24T12:37:28;4.20;82.60
68924;DHT22;55961;52.156;20.942;2023-01-24T12:45:17;4.20;82.30
68924;DHT22;55961;52.156;20.942;2023-01-24T12:47:54;4.20;82.20
68924;DHT22;55961;52.156;20.942;2023-01-24T12:53:22;4.30;82.20
68924;DHT22;55961;52.156;20.942;2023-01-24T12:56:09;4.30;82.20
68924;DHT22;55961;52.156;20.942;2023-01-24T12:58:41;4.30;82.00
68924;DHT22;55961;52.156;20.942;2023-01-24T13:12:29;4.30;81.80
68924;DHT22;55961;52.156;20.942;2023-01-24T13:15:14;4.30;81.60
68924;DHT22;55961;52.156;20.942;2023-01-24T13:17:56;4.40;81.70
68924;DHT22;55961;52.156;20.942;2023-01-24T13:23:26;4.30;81.50
68924;DHT22;55961;52.156;20.942;2023-01-24T13:26:19;4.30;81.40
68924;DHT22;55961;52.156;20.942;2023-01-24T13:34:21;4.40;81.50
68924;DHT22;55961;52.156;20.942;2023-01-24T13:36:50;4.30;81.60
68924;DHT22;55961;52.156;20.942;2023-01-24T13:39:33;4.40;81.40
68924;DHT22;55961;52.156;20.942;2023-01-24T13:42:17;4.40;81.40
68924;DHT22;55961;52.156;20.942;2023-01-24T13:44:45;4.40;81.40
68924;DHT22;55961;52.156;20.942;2023-01-24T13:55:00;4.40;81.20
68924;DHT22;55961;52.156;20.942;2023-01-24T13:57:32;4.40;81.20
68924;DHT22;55961;52.156;20.942;2023-01-24T14:02:43;4.30;81.00
68924;DHT22;55961;52.156;20.942;2023-01-24T14:08:01;4.40;81.00
68924;DHT22;55961;52.156;20.942;2023-01-24T14:18:53;4.30;81.00
68924;DHT22;55961;52.156;20.942;2023-01-24T14:21:30;4.30;81.10
68924;DHT22;55961;52.156;20.942;2023-01-24T14:24:01;4.30;81.20
68924;DHT22;55961;52.156;20.942;2023-01-24T14:26:31;4.30;81.30
68924;DHT22;55961;52.156;20.942;2023-01-24T14:29:03;4.30;81.20
68924;DHT22;55961;52.156;20.942;2023-01-24T14:31:35;4.20;81.30
68924;DHT22;55961;52.156;20.942;2023-01-24T14:36:59;4.20;81.40
68924;DHT22;55961;52.156;20.942;2023-01-24T14:39:27;4.20;81.50
68924;DHT22;55961;52.156;20.942;2023-01-24T14:42:00;4.20;81.60
68924;DHT22;55961;52.156;20.942;2023-01-24T14:44:32;4.20;81.70
68924;DHT22;55961;52.156;20.942;2023-01-24T14:47:02;4.10;81.80
68924;DHT22;55961;52.156;20.942;2023-01-24T14:49:41;4.10;81.90
68924;DHT22;55961;52.156;20.942;2023-01-24T14:52:24;4.10;81.90
68924;DHT22;55961;52.156;20.942;2023-01-24T14:54:53;4.10;81.90
68924;DHT22;55961;52.156;20.942;2023-01-24T14:57:28;4.10;82.00
68924;DHT22;55961;52.156;20.942;2023-01-24T15:00:04;4.10;82.10
68924;DHT22;55961;52.156;20.942;2023-01-24T15:02:32;4.10;82.00
68924;DHT22;55961;52.156;20.942;2023-01-24T15:04:58;4.00;82.00
68924;DHT22;55961;52.156;20.942;2023-01-24T15:07:24;4.00;82.20
68924;DHT22;55961;52.156;20.942;2023-01-24T15:09:50;4.00;82.20
68924;DHT22;55961;52.156;20.942;2023-01-24T15:14:49;3.90;82.20
68924;DHT22;55961;52.156;20.942;2023-01-24T15:17:26;3.90;82.30
68924;DHT22;55961;52.156;20.942;2023-01-24T15:20:07;3.90;82.40
68924;DHT22;55961;52.156;20.942;2023-01-24T15:22:36;3.90;82.40
68924;DHT22;55961;52.156;20.942;2023-01-24T15:25:14;3.90;82.50
68924;DHT22;55961;52.156;20.942;2023-01-24T15:27:42;3.90;82.50
68924;DHT22;55961;52.156;20.942;2023-01-24T15:30:20;3.90;82.60
68924;DHT22;55961;52.156;20.942;2023-01-24T15:32:47;3.90;82.60
68924;DHT22;55961;52.156;20.942;2023-01-24T15:35:44;3.90;82.70
68924;DHT22;55961;52.156;20.942;2023-01-24T15:38:18;3.90;82.70
68924;DHT22;55961;52.156;20.942;2023-01-24T15:43:27;3.80;82.70
68924;DHT22;55961;52.156;20.942;2023-01-24T15:46:22;3.80;82.80
68924;DHT22;55961;52.156;20.942;2023-01-24T15:52:16;3.80;82.70
68924;DHT22;55961;52.156;20.942;2023-01-24T15:54:46;3.80;82.90
68924;DHT22;55961;52.156;20.942;2023-01-24T15:59:54;3.80;82.90
68924;DHT22;55961;52.156;20.942;2023-01-24T16:02:20;3.80;82.80
68924;DHT22;55961;52.156;20.942;2023-01-24T16:04:46;3.70;83.00
68924;DHT22;55961;52.156;20.942;2023-01-24T16:07:14;3.70;82.90
68924;DHT22;55961;52.156;20.942;2023-01-24T16:09:41;3.70;82.90
68924;DHT22;55961;52.156;20.942;2023-01-24T16:12:13;3.70;83.00
68924;DHT22;55961;52.156;20.942;2023-01-24T16:14:52;3.80;83.00
68924;DHT22;55961;52.156;20.942;2023-01-24T16:17:20;3.70;83.10
68924;DHT22;55961;52.156;20.942;2023-01-24T16:19:47;3.70;83.20
68924;DHT22;55961;52.156;20.942;2023-01-24T16:22:13;3.70;83.10
68924;DHT22;55961;52.156;20.942;2023-01-24T16:24:41;3.70;83.10
68924;DHT22;55961;52.156;20.942;2023-01-24T16:27:12;3.70;83.10
68924;DHT22;55961;52.156;20.942;2023-01-24T16:29:39;3.70;83.20
68924;DHT22;55961;52.156;20.942;2023-01-24T16:32:34;3.70;83.30
68924;DHT22;55961;52.156;20.942;2023-01-24T16:35:00;3.70;83.30
68924;DHT22;55961;52.156;20.942;2023-01-24T16:37:26;3.70;83.30
68924;DHT22;55961;52.156;20.942;2023-01-24T16:39:53;3.70;83.40
68924;DHT22;55961;52.156;20.942;2023-01-24T16:42:19;3.70;83.50
68924;DHT22;55961;52.156;20.942;2023-01-24T16:44:59;3.70;83.30
68924;DHT22;55961;52.156;20.942;2023-01-24T16:47:26;3.70;83.40
68924;DHT22;55961;52.156;20.942;2023-01-24T16:49:54;3.70;83.40
68924;DHT22;55961;52.156;20.942;2023-01-24T16:52:22;3.60;83.40
68924;DHT22;55961;52.156;20.942;2023-01-24T16:54:49;3.60;83.50
68924;DHT22;55961;52.156;20.942;2023-01-24T16:57:15;3.60;83.50
68924;DHT22;55961;52.156;20.942;2023-01-24T16:59:41;3.60;83.60
68924;DHT22;55961;52.156;20.942;2023-01-24T17:02:09;3.60;83.70
68924;DHT22;55961;52.156;20.942;2023-01-24T17:04:36;3.60;83.90
68924;DHT22;55961;52.156;20.942;2023-01-24T17:07:02;3.50;84.10
68924;DHT22;55961;52.156;20.942;2023-01-24T17:09:30;3.50;84.20
68924;DHT22;55961;52.156;20.942;2023-01-24T17:11:56;3.60;84.30
68924;DHT22;55961;52.156;20.942;2023-01-24T17:14:22;3.50;84.30
68924;DHT22;55961;52.156;20.942;2023-01-24T17:16:49;3.50;84.10
68924;DHT22;55961;52.156;20.942;2023-01-24T17:19:15;3.50;84.10
68924;DHT22;55961;52.156;20.942;2023-01-24T17:21:42;3.50;84.00
68924;DHT22;55961;52.156;20.942;2023-01-24T17:24:09;3.50;84.20
68924;DHT22;55961;52.156;20.942;2023-01-24T17:26:35;3.50;84.20
68924;DHT22;55961;52.156;20.942;2023-01-24T17:29:02;3.50;84.20
68924;DHT22;55961;52.156;20.942;2023-01-24T17:31:28;3.50;84.10
68924;DHT22;55961;52.156;20.942;2023-01-24T17:33:54;3.40;84.10
68924;DHT22;55961;52.156;20.942;2023-01-24T17:36:20;3.40;84.20
68924;DHT22;55961;52.156;20.942;2023-01-24T17:38:46;3.40;84.20
68924;DHT22;55961;52.156;20.942;2023-01-24T17:41:17;3.40;84.30
68924;DHT22;55961;52.156;20.942;2023-01-24T17:43:43;3.40;84.40
68924;DHT22;55961;52.156;20.942;2023-01-24T17:46:09;3.40;84.60
68924;DHT22;55961;52.156;20.942;2023-01-24T17:48:36;3.40;84.60
68924;DHT22;55961;52.156;20.942;2023-01-24T17:51:10;3.40;84.60
68924;DHT22;55961;52.156;20.942;2023-01-24T17:53:39;3.40;84.70
68924;DHT22;55961;52.156;20.942;2023-01-24T17:56:06;3.40;84.60
68924;DHT22;55961;52.156;20.942;2023-01-24T17:58:32;3.40;84.60
68924;DHT22;55961;52.156;20.942;2023-01-24T18:00:59;3.40;84.70
68924;DHT22;55961;52.156;20.942;2023-01-24T18:03:25;3.40;84.70
68924;DHT22;55961;52.156;20.942;2023-01-24T18:05:52;3.30;84.60